Chesterfield, North Carolina
Current Conditions -  °F | °C
As of 3:55 PM on Thursday 18 Dec 2014 (Local Time) from KMRN Reporting Station
Overcast Overcast  
Wind Chill: 53°   Ceiling: 6000
Heat Index: 53°   Visibility: 10mi
Dew Point: 25°   Wind: 0mph
Humidity: 34%   Direction: NA
Pressure: 30.09"   Gusts: NA
Location:  35.7567°N, 81.7518°W
Report Text: KMRN 182055Z AUTO 00000KT 10SM OVC060 12/M04 A3009 RMK AO2 T01151039
Loading
Personal Weather Stations






























Interactive Weather Map New forecast layout! Learn more

10-Day Weather Forecast

Advertisements
Track Severe Weather on mobile